Time;durP1;ratioP1;P1;durP2;ratioP2;P2;SDS_P1;SDS_P2;PMS_P1;PMS_P2;Temp;Humidity;BMP_temperature;BMP_pressure;BME280_temperature;BME280_humidity;BME280_pressure;Samples;Min_cycle;Max_cycle;Signal;HPM_P1;HPM_P2
2021/03/30 00:00:37;;;;;;;24.10;18.50;;;;;;;;;;5032495;28;20449;-65
2021/03/30 00:03:04;;;;;;;23.33;18.90;;;;;;;;;;5032613;28;20560;-66
2021/03/30 00:05:31;;;;;;;21.87;17.33;;;;;;;;;;5032020;28;20865;-65
2021/03/30 00:07:57;;;;;;;23.33;17.83;;;;;;;;;;5032591;28;20469;-66
2021/03/30 00:10:30;;;;;;;20.33;16.90;;;;;;;;;;5032627;28;20641;-67
2021/03/30 00:12:57;;;;;;;21.87;17.90;;;;;;;;;;5032472;28;20425;-66
2021/03/30 00:15:23;;;;;;;22.80;15.90;;;;;;;;;;5032242;28;20449;-65
2021/03/30 00:17:50;;;;;;;19.33;16.60;;;;;;;;;;5032701;28;20473;-65
2021/03/30 00:20:17;;;;;;;17.67;15.97;;;;;;;;;;5032092;28;20449;-66
2021/03/30 00:22:44;;;;;;;16.83;15.03;;;;;;;;;;5032321;28;20494;-65
2021/03/30 00:25:11;;;;;;;17.43;14.67;;;;;;;;;;5032381;28;20440;-65
2021/03/30 00:27:38;;;;;;;20.00;14.67;;;;;;;;;;5031851;28;20480;-65
2021/03/30 00:30:06;;;;;;;16.20;14.50;;;;;;;;;;5032215;28;20896;-65
2021/03/30 00:32:32;;;;;;;17.47;12.90;;;;;;;;;;5031747;28;21002;-65
2021/03/30 00:34:59;;;;;;;19.10;13.77;;;;;;;;;;5031544;28;20452;-66
2021/03/30 00:37:26;;;;;;;15.30;12.40;;;;;;;;;;5031769;28;20540;-65
2021/03/30 00:39:53;;;;;;;17.53;11.57;;;;;;;;;;5012832;28;20532;-65
2021/03/30 00:42:20;;;;;;;13.13;11.83;;;;;;;;;;5012221;28;21121;-66
2021/03/30 00:44:48;;;;;;;13.23;11.93;;;;;;;;;;5030998;28;20457;-65
2021/03/30 00:47:15;;;;;;;13.30;11.90;;;;;;;;;;5030604;28;20544;-65
2021/03/30 00:49:42;;;;;;;13.47;11.93;;;;;;;;;;5028881;28;20469;-65
2021/03/30 00:52:09;;;;;;;12.33;10.73;;;;;;;;;;5031854;28;20528;-65
2021/03/30 00:54:36;;;;;;;14.70;11.40;;;;;;;;;;5031945;28;20452;-65
2021/03/30 00:57:03;;;;;;;17.67;12.33;;;;;;;;;;5032045;28;20444;-64
2021/03/30 00:59:30;;;;;;;15.10;11.03;;;;;;;;;;5031592;28;20481;-65
2021/03/30 01:01:57;;;;;;;14.60;10.90;;;;;;;;;;5032005;28;20484;-65
2021/03/30 01:04:24;;;;;;;14.00;11.73;;;;;;;;;;5031676;28;20475;-65
2021/03/30 01:06:51;;;;;;;17.27;11.70;;;;;;;;;;5031886;28;20452;-65
2021/03/30 01:09:25;;;;;;;13.60;12.20;;;;;;;;;;5031430;28;20548;-65
2021/03/30 01:12:04;;;;;;;17.43;12.83;;;;;;;;;;5031854;28;20524;-64
2021/03/30 01:14:40;;;;;;;15.17;11.43;;;;;;;;;;5031545;28;20448;-64
2021/03/30 01:17:15;;;;;;;18.97;12.23;;;;;;;;;;5031336;28;20448;-64
2021/03/30 01:19:54;;;;;;;18.20;12.90;;;;;;;;;;5031311;28;20468;-65
2021/03/30 01:22:49;;;;;;;17.27;13.20;;;;;;;;;;5031308;28;21041;-65
2021/03/30 01:25:16;;;;;;;17.37;13.50;;;;;;;;;;5015266;28;20429;-67
2021/03/30 01:27:46;;;;;;;17.30;12.63;;;;;;;;;;5023936;28;20468;-65
2021/03/30 01:30:14;;;;;;;21.03;12.90;;;;;;;;;;5035962;28;20478;-65
2021/03/30 01:32:43;;;;;;;17.13;14.03;;;;;;;;;;5034861;28;20790;-65
2021/03/30 01:35:11;;;;;;;16.20;13.37;;;;;;;;;;5035728;28;20543;-65
2021/03/30 01:37:39;;;;;;;15.50;13.60;;;;;;;;;;5035191;28;20881;-65
2021/03/30 01:40:07;;;;;;;18.23;13.70;;;;;;;;;;5035488;28;20452;-65
2021/03/30 01:42:34;;;;;;;17.27;14.20;;;;;;;;;;5035073;28;20559;-65
2021/03/30 01:45:01;;;;;;;19.77;12.37;;;;;;;;;;5035628;28;20448;-67
2021/03/30 01:47:29;;;;;;;16.80;13.10;;;;;;;;;;5034550;28;20448;-65
2021/03/30 01:49:56;;;;;;;15.20;11.97;;;;;;;;;;5035168;28;20448;-65
2021/03/30 01:52:23;;;;;;;14.53;12.37;;;;;;;;;;5034693;28;20464;-65
2021/03/30 01:54:50;;;;;;;17.00;12.80;;;;;;;;;;5034750;28;20456;-65
2021/03/30 01:57:19;;;;;;;18.83;12.60;;;;;;;;;;5034592;28;20455;-66
2021/03/30 01:59:46;;;;;;;15.77;13.20;;;;;;;;;;5034929;28;20476;-65
2021/03/30 02:02:14;;;;;;;16.43;12.57;;;;;;;;;;5034301;28;20476;-65
2021/03/30 02:04:41;;;;;;;19.10;13.47;;;;;;;;;;5035034;28;20601;-65
2021/03/30 02:07:09;;;;;;;15.77;13.03;;;;;;;;;;5034091;28;20531;-65
2021/03/30 02:09:39;;;;;;;14.07;12.60;;;;;;;;;;5034941;28;20468;-65
2021/03/30 02:12:09;;;;;;;19.50;13.67;;;;;;;;;;5033638;28;20465;-65
2021/03/30 02:14:36;;;;;;;16.53;13.60;;;;;;;;;;5035224;28;20452;-66
2021/03/30 02:17:03;;;;;;;15.57;10.97;;;;;;;;;;5034167;28;20463;-64
2021/03/30 02:19:35;;;;;;;14.50;11.90;;;;;;;;;;5034598;28;20476;-66
2021/03/30 02:22:05;;;;;;;16.30;11.40;;;;;;;;;;5033227;28;20579;-67
2021/03/30 02:24:32;;;;;;;13.20;10.67;;;;;;;;;;5034848;28;20445;-67
2021/03/30 02:26:59;;;;;;;13.20;10.60;;;;;;;;;;5034125;28;20876;-66
2021/03/30 02:29:33;;;;;;;13.07;10.70;;;;;;;;;;5034212;28;20488;-65
2021/03/30 02:32:00;;;;;;;16.10;10.00;;;;;;;;;;5033498;28;20449;-68
2021/03/30 02:34:29;;;;;;;11.27;10.00;;;;;;;;;;5034004;28;20448;-68
2021/03/30 02:36:57;;;;;;;13.87;10.77;;;;;;;;;;5033811;28;20457;-68
2021/03/30 02:39:25;;;;;;;13.57;10.70;;;;;;;;;;5034288;28;20531;-68
2021/03/30 02:41:52;;;;;;;13.27;9.93;;;;;;;;;;5032769;28;20483;-66
2021/03/30 02:44:20;;;;;;;12.90;9.40;;;;;;;;;;5034246;28;20464;-68
2021/03/30 02:46:47;;;;;;;13.30;9.53;;;;;;;;;;5033440;28;20459;-68
2021/03/30 02:49:16;;;;;;;14.30;10.90;;;;;;;;;;5034097;28;20559;-68
2021/03/30 02:51:44;;;;;;;12.77;9.80;;;;;;;;;;5033426;28;20444;-68
2021/03/30 02:54:11;;;;;;;14.03;9.50;;;;;;;;;;5034081;28;20448;-68
2021/03/30 02:56:38;;;;;;;13.47;9.10;;;;;;;;;;5033212;28;20455;-68
2021/03/30 02:59:05;;;;;;;13.70;8.70;;;;;;;;;;5033658;28;20503;-67
2021/03/30 03:01:33;;;;;;;15.90;9.17;;;;;;;;;;5032523;28;20480;-66
2021/03/30 03:04:00;;;;;;;16.40;9.60;;;;;;;;;;5033678;28;20531;-69
2021/03/30 03:06:27;;;;;;;14.03;9.40;;;;;;;;;;5033236;28;20531;-68
2021/03/30 03:08:54;;;;;;;13.90;10.30;;;;;;;;;;5033704;28;20491;-68
2021/03/30 03:11:22;;;;;;;12.87;8.80;;;;;;;;;;5032400;28;20458;-66
2021/03/30 03:13:51;;;;;;;13.80;9.67;;;;;;;;;;5033264;28;21009;-66
2021/03/30 03:16:20;;;;;;;16.50;9.90;;;;;;;;;;5033223;28;21017;-68
2021/03/30 03:18:46;;;;;;;13.10;9.20;;;;;;;;;;5033047;28;20473;-68
2021/03/30 03:21:13;;;;;;;14.13;9.53;;;;;;;;;;5032324;28;20895;-67
2021/03/30 03:23:41;;;;;;;20.37;8.87;;;;;;;;;;5033310;28;20536;-68
2021/03/30 03:26:07;;;;;;;13.40;9.63;;;;;;;;;;5032747;28;20544;-68
2021/03/30 03:28:38;;;;;;;12.70;9.90;;;;;;;;;;5032664;28;20523;-67
2021/03/30 03:31:06;;;;;;;10.13;9.13;;;;;;;;;;5033301;28;20445;-68
2021/03/30 03:33:32;;;;;;;13.77;9.73;;;;;;;;;;5033136;28;20501;-68
2021/03/30 03:36:07;;;;;;;10.97;9.23;;;;;;;;;;5033157;28;20448;-67
2021/03/30 03:38:33;;;;;;;10.30;9.27;;;;;;;;;;5032573;28;20474;-67
2021/03/30 03:41:00;;;;;;;17.90;9.73;;;;;;;;;;5033281;28;20494;-68
2021/03/30 03:43:27;;;;;;;18.30;9.70;;;;;;;;;;5032768;28;20554;-68
2021/03/30 03:45:53;;;;;;;11.10;9.87;;;;;;;;;;5032278;28;20449;-68
2021/03/30 03:48:21;;;;;;;13.83;9.37;;;;;;;;;;5031708;28;20820;-68
2021/03/30 03:50:48;;;;;;;12.83;9.70;;;;;;;;;;5033077;28;20503;-67
2021/03/30 03:53:15;;;;;;;11.80;9.40;;;;;;;;;;5031985;28;20451;-68
2021/03/30 03:55:45;;;;;;;12.90;9.90;;;;;;;;;;5032677;28;20502;-67
2021/03/30 03:58:13;;;;;;;10.57;9.20;;;;;;;;;;5032637;28;20477;-65
2021/03/30 04:00:41;;;;;;;13.50;9.80;;;;;;;;;;5032093;28;20495;-65
2021/03/30 04:03:09;;;;;;;11.73;10.10;;;;;;;;;;5032590;28;20577;-65
2021/03/30 04:05:41;;;;;;;13.37;9.17;;;;;;;;;;5032365;28;20449;-65
2021/03/30 04:08:10;;;;;;;15.83;10.40;;;;;;;;;;5032452;28;20587;-64
2021/03/30 04:10:39;;;;;;;12.13;10.27;;;;;;;;;;5032223;28;20879;-64
2021/03/30 04:13:06;;;;;;;15.10;9.50;;;;;;;;;;5032136;28;20457;-65
2021/03/30 04:15:33;;;;;;;12.90;10.03;;;;;;;;;;5032372;28;20506;-64
2021/03/30 04:18:00;;;;;;;14.93;11.17;;;;;;;;;;5031823;28;21104;-65
2021/03/30 04:20:27;;;;;;;12.33;10.50;;;;;;;;;;5032418;28;20922;-65
2021/03/30 04:22:55;;;;;;;15.23;11.20;;;;;;;;;;5032246;28;20487;-65
2021/03/30 04:25:22;;;;;;;12.00;10.83;;;;;;;;;;5031944;28;20491;-65
2021/03/30 04:27:49;;;;;;;13.73;11.83;;;;;;;;;;5032085;28;20472;-65
2021/03/30 04:30:16;;;;;;;13.87;11.73;;;;;;;;;;5031969;28;20524;-65
2021/03/30 04:32:42;;;;;;;12.90;10.50;;;;;;;;;;5031785;28;20536;-66
2021/03/30 04:35:10;;;;;;;12.90;10.30;;;;;;;;;;5031141;28;20479;-65
2021/03/30 04:37:36;;;;;;;14.80;12.53;;;;;;;;;;5031113;28;20578;-65
2021/03/30 04:40:04;;;;;;;15.07;11.57;;;;;;;;;;5031686;28;20535;-65
2021/03/30 04:42:31;;;;;;;13.20;11.90;;;;;;;;;;5031731;28;20480;-65
2021/03/30 04:44:58;;;;;;;14.67;12.43;;;;;;;;;;5032229;28;20456;-65
2021/03/30 04:47:24;;;;;;;20.30;12.90;;;;;;;;;;5031269;28;20449;-64
2021/03/30 04:49:51;;;;;;;14.97;12.57;;;;;;;;;;5032073;28;20449;-65
2021/03/30 04:52:18;;;;;;;18.40;14.03;;;;;;;;;;5031675;28;20484;-64
2021/03/30 04:54:44;;;;;;;13.90;12.60;;;;;;;;;;5032014;28;20457;-64
2021/03/30 04:57:12;;;;;;;16.73;13.53;;;;;;;;;;5031389;28;20586;-66
2021/03/30 04:59:38;;;;;;;19.80;14.17;;;;;;;;;;5030946;28;20991;-65
2021/03/30 05:02:05;;;;;;;14.60;12.80;;;;;;;;;;5031164;28;20473;-65
2021/03/30 05:04:32;;;;;;;17.90;13.43;;;;;;;;;;5032016;28;20448;-64
2021/03/30 05:06:59;;;;;;;14.87;13.17;;;;;;;;;;5031517;28;20460;-64
2021/03/30 05:09:25;;;;;;;17.40;14.30;;;;;;;;;;5031224;28;20555;-66
2021/03/30 05:11:52;;;;;;;15.53;13.27;;;;;;;;;;5031331;28;20455;-64
2021/03/30 05:14:19;;;;;;;19.60;14.77;;;;;;;;;;5031159;28;20453;-64
2021/03/30 05:16:46;;;;;;;15.63;14.03;;;;;;;;;;5031435;28;20453;-64
2021/03/30 05:19:13;;;;;;;17.40;15.67;;;;;;;;;;5031942;28;20563;-64
2021/03/30 05:21:39;;;;;;;16.90;14.73;;;;;;;;;;5031041;28;20449;-64
2021/03/30 05:24:06;;;;;;;20.27;14.33;;;;;;;;;;5031714;28;20449;-66
2021/03/30 05:26:33;;;;;;;19.47;14.90;;;;;;;;;;5031142;28;20448;-64
2021/03/30 05:29:00;;;;;;;17.33;15.33;;;;;;;;;;5045706;22;20852;-61
2021/03/30 05:31:27;;;;;;;19.07;14.67;;;;;;;;;;5026266;28;21182;-63
2021/03/30 05:33:54;;;;;;;19.53;15.40;;;;;;;;;;5037798;28;20538;-62
2021/03/30 05:36:20;;;;;;;17.33;15.57;;;;;;;;;;5029098;28;21062;-63
2021/03/30 05:38:47;;;;;;;20.60;15.63;;;;;;;;;;5030719;28;20995;-63
2021/03/30 05:41:14;;;;;;;17.50;15.70;;;;;;;;;;5031001;28;20512;-62
2021/03/30 05:43:41;;;;;;;9.73;4.70;;;;;;;;;;5032744;28;20524;-62
2021/03/30 05:46:08;;;;;;;6.20;3.60;;;;;;;;;;5029763;28;20882;-65
2021/03/30 05:48:38;;;;;;;9.00;6.00;;;;;;;;;;5011829;28;20493;-65
2021/03/30 05:51:05;;;;;;;7.40;4.83;;;;;;;;;;5028610;28;20471;-66
2021/03/30 05:53:33;;;;;;;7.43;5.10;;;;;;;;;;5030589;28;20551;-65
2021/03/30 05:56:01;;;;;;;7.13;5.40;;;;;;;;;;5030866;28;20456;-64
2021/03/30 05:58:29;;;;;;;10.20;5.30;;;;;;;;;;5022922;28;20960;-65
2021/03/30 06:00:57;;;;;;;9.23;6.07;;;;;;;;;;5031156;28;20539;-66
2021/03/30 06:03:24;;;;;;;6.50;4.97;;;;;;;;;;5031025;28;20495;-66
2021/03/30 06:05:53;;;;;;;8.13;7.30;;;;;;;;;;5030536;28;20518;-65
2021/03/30 06:08:21;;;;;;;8.77;5.70;;;;;;;;;;5029063;28;20947;-65
2021/03/30 06:10:48;;;;;;;12.63;6.20;;;;;;;;;;5033528;28;20465;-65
2021/03/30 06:13:14;;;;;;;9.47;6.87;;;;;;;;;;5033839;28;21157;-66
2021/03/30 06:15:41;;;;;;;7.13;5.33;;;;;;;;;;5034931;28;20535;-66
2021/03/30 06:18:18;;;;;;;8.37;6.20;;;;;;;;;;5033095;28;20535;-66
2021/03/30 06:20:44;;;;;;;7.57;5.90;;;;;;;;;;5034845;28;20641;-66
2021/03/30 06:23:12;;;;;;;7.53;6.83;;;;;;;;;;5033441;28;20484;-65
2021/03/30 06:25:41;;;;;;;6.50;5.17;;;;;;;;;;5034597;28;20527;-65
2021/03/30 06:28:14;;;;;;;8.07;7.20;;;;;;;;;;5034330;28;20503;-65
2021/03/30 06:30:54;;;;;;;6.80;5.70;;;;;;;;;;5033605;28;20567;-64
2021/03/30 06:33:21;;;;;;;6.43;5.80;;;;;;;;;;5032510;28;20468;-66
2021/03/30 06:35:47;;;;;;;7.50;5.50;;;;;;;;;;5032534;28;20986;-65
2021/03/30 06:38:15;;;;;;;10.17;7.87;;;;;;;;;;5033034;28;20598;-66
2021/03/30 06:40:43;;;;;;;6.97;6.27;;;;;;;;;;5032402;28;20484;-66
2021/03/30 06:46:05;;;;;;;6.20;5.20;;;;;;;;;;5033777;28;20456;-66
2021/03/30 06:48:32;;;;;;;5.80;4.87;;;;;;;;;;5034036;28;20459;-66
2021/03/30 06:51:16;;;;;;;7.63;4.90;;;;;;;;;;5032229;28;20464;-66
2021/03/30 06:53:43;;;;;;;5.80;5.20;;;;;;;;;;5031953;28;20559;-67
2021/03/30 06:56:10;;;;;;;8.00;6.47;;;;;;;;;;5027653;28;20556;-66
2021/03/30 06:58:51;;;;;;;5.97;4.53;;;;;;;;;;5028222;28;20492;-65
2021/03/30 07:01:19;;;;;;;7.50;5.13;;;;;;;;;;5029808;28;20548;-66
2021/03/30 07:03:46;;;;;;;5.90;4.33;;;;;;;;;;5031573;28;20658;-65
2021/03/30 07:06:14;;;;;;;5.80;5.10;;;;;;;;;;5030746;28;20449;-66
2021/03/30 07:08:42;;;;;;;10.00;6.30;;;;;;;;;;5030565;28;20776;-65
2021/03/30 07:11:09;;;;;;;8.30;4.60;;;;;;;;;;5030583;28;20452;-66
2021/03/30 07:13:36;;;;;;;8.40;4.90;;;;;;;;;;5033278;28;20449;-65
2021/03/30 07:16:06;;;;;;;8.33;4.83;;;;;;;;;;5032896;28;20543;-65
2021/03/30 07:18:35;;;;;;;8.37;4.67;;;;;;;;;;5033723;28;20448;-65
2021/03/30 07:21:03;;;;;;;6.10;4.30;;;;;;;;;;5031048;28;20903;-65
2021/03/30 07:23:31;;;;;;;6.37;4.30;;;;;;;;;;5032556;28;20865;-64
2021/03/30 07:26:00;;;;;;;6.47;3.77;;;;;;;;;;5032607;28;20459;-65
2021/03/30 07:28:30;;;;;;;6.90;4.43;;;;;;;;;;5036929;28;20448;-66
2021/03/30 07:30:58;;;;;;;8.60;4.93;;;;;;;;;;5034637;28;21022;-66
2021/03/30 07:33:27;;;;;;;8.03;4.43;;;;;;;;;;5036865;28;20527;-66
2021/03/30 07:35:55;;;;;;;6.10;4.57;;;;;;;;;;5025971;28;20445;-65
2021/03/30 07:38:24;;;;;;;4.50;3.60;;;;;;;;;;5014281;28;20450;-65
2021/03/30 07:40:51;;;;;;;4.70;3.70;;;;;;;;;;5015041;28;20453;-64
2021/03/30 07:43:21;;;;;;;6.57;4.63;;;;;;;;;;5014184;28;20488;-65
2021/03/30 07:45:50;;;;;;;5.77;5.20;;;;;;;;;;5014532;28;20446;-65
2021/03/30 07:48:18;;;;;;;9.87;5.20;;;;;;;;;;5032979;28;20544;-65
2021/03/30 07:50:49;;;;;;;9.67;5.50;;;;;;;;;;5026823;28;20473;-65
2021/03/30 07:53:35;;;;;;;6.90;3.90;;;;;;;;;;5033444;28;20888;-66
2021/03/30 07:56:01;;;;;;;6.80;4.20;;;;;;;;;;5028582;28;20453;-65
2021/03/30 07:58:36;;;;;;;5.93;4.30;;;;;;;;;;5014157;28;20544;-65
2021/03/30 08:01:04;;;;;;;7.53;4.47;;;;;;;;;;5030754;28;20548;-65
2021/03/30 08:03:34;;;;;;;6.53;4.50;;;;;;;;;;5032872;28;20480;-65
2021/03/30 08:06:04;;;;;;;5.63;4.20;;;;;;;;;;5031545;28;20602;-65
2021/03/30 08:08:31;;;;;;;5.80;4.40;;;;;;;;;;5032885;28;20536;-65
2021/03/30 08:10:58;;;;;;;46.50;42.33;;;;;;;;;;5032507;28;20449;-66
2021/03/30 08:13:28;;;;;;;26.20;24.13;;;;;;;;;;5033232;28;21010;-67
2021/03/30 08:15:56;;;;;;;17.57;13.30;;;;;;;;;;5029376;28;21013;-65
2021/03/30 08:18:24;;;;;;;18.07;11.87;;;;;;;;;;5032062;28;20891;-65
2021/03/30 08:20:52;;;;;;;8.70;7.90;;;;;;;;;;5030823;28;20466;-65
2021/03/30 08:23:20;;;;;;;13.50;9.77;;;;;;;;;;5032156;28;20568;-65
2021/03/30 08:25:49;;;;;;;9.07;8.10;;;;;;;;;;5031136;28;20472;-66
2021/03/30 08:28:46;;;;;;;8.47;7.50;;;;;;;;;;5029456;28;21041;-65
2021/03/30 08:31:13;;;;;;;8.50;6.20;;;;;;;;;;4988655;28;20466;-65
2021/03/30 08:33:41;;;;;;;8.20;7.27;;;;;;;;;;5022220;28;20547;-66
2021/03/30 08:36:25;;;;;;;8.73;7.03;;;;;;;;;;5028790;28;20614;-67
2021/03/30 08:38:53;;;;;;;7.53;6.77;;;;;;;;;;5030751;28;21105;-65
2021/03/30 08:41:38;;;;;;;7.10;5.60;;;;;;;;;;5032270;28;20599;-65
2021/03/30 08:44:11;;;;;;;6.40;4.70;;;;;;;;;;5028588;28;20537;-66
2021/03/30 08:46:38;;;;;;;5.90;4.83;;;;;;;;;;5035385;28;20464;-66
2021/03/30 08:49:13;;;;;;;6.40;4.90;;;;;;;;;;5033282;28;20503;-66
2021/03/30 08:51:40;;;;;;;9.40;4.80;;;;;;;;;;5026920;28;21005;-66
2021/03/30 08:54:09;;;;;;;7.77;5.30;;;;;;;;;;5032389;28;20827;-66
2021/03/30 08:56:36;;;;;;;6.60;4.00;;;;;;;;;;5032544;28;20453;-67
2021/03/30 08:59:03;;;;;;;7.03;4.63;;;;;;;;;;5032327;28;21822;-66
2021/03/30 09:01:30;;;;;;;6.13;4.60;;;;;;;;;;5031014;28;20516;-66
2021/03/30 09:03:57;;;;;;;5.23;4.53;;;;;;;;;;5031041;28;20484;-65
2021/03/30 09:06:34;;;;;;;5.47;4.43;;;;;;;;;;5022875;28;20454;-65
2021/03/30 09:09:01;;;;;;;6.07;4.07;;;;;;;;;;5032006;28;20473;-68
2021/03/30 09:11:30;;;;;;;7.40;4.27;;;;;;;;;;5032009;28;20543;-66
2021/03/30 09:14:05;;;;;;;8.23;4.50;;;;;;;;;;5019921;28;20462;-66
2021/03/30 09:16:32;;;;;;;5.53;4.10;;;;;;;;;;5026868;28;20604;-66
2021/03/30 09:19:13;;;;;;;6.90;4.77;;;;;;;;;;5028834;28;20491;-66
2021/03/30 09:21:40;;;;;;;4.93;4.07;;;;;;;;;;5023311;28;20460;-66
2021/03/30 09:24:11;;;;;;;7.67;5.27;;;;;;;;;;5025658;28;20480;-67
2021/03/30 09:26:41;;;;;;;6.60;4.10;;;;;;;;;;5030543;28;20444;-66
2021/03/30 09:29:08;;;;;;;4.80;3.60;;;;;;;;;;5031163;28;20488;-66
2021/03/30 09:31:35;;;;;;;4.67;4.17;;;;;;;;;;5035942;28;20963;-66
2021/03/30 09:34:01;;;;;;;4.20;3.50;;;;;;;;;;5031385;28;20567;-66
2021/03/30 09:36:28;;;;;;;9.03;4.13;;;;;;;;;;5028759;28;20982;-66
2021/03/30 09:38:57;;;;;;;3.87;3.47;;;;;;;;;;5031799;28;20987;-66
2021/03/30 09:41:40;;;;;;;5.40;4.13;;;;;;;;;;5030732;28;20830;-65
2021/03/30 09:44:07;;;;;;;4.20;3.57;;;;;;;;;;5031090;28;20480;-66
2021/03/30 09:46:34;;;;;;;5.40;4.40;;;;;;;;;;5035023;28;20516;-65
2021/03/30 09:49:01;;;;;;;5.93;3.57;;;;;;;;;;5032684;28;21062;-66
2021/03/30 09:51:28;;;;;;;5.27;3.87;;;;;;;;;;5035705;28;20575;-65
2021/03/30 09:53:55;;;;;;;4.67;3.50;;;;;;;;;;5032900;28;20555;-66
2021/03/30 09:56:23;;;;;;;4.20;3.20;;;;;;;;;;5035839;28;20544;-66
2021/03/30 09:58:49;;;;;;;3.60;3.30;;;;;;;;;;5033613;28;20559;-66
2021/03/30 10:01:16;;;;;;;7.80;3.97;;;;;;;;;;5034963;28;20522;-66
2021/03/30 10:03:43;;;;;;;5.17;3.33;;;;;;;;;;5032510;28;20480;-66
2021/03/30 10:06:19;;;;;;;6.90;3.53;;;;;;;;;;5034302;28;20469;-66
2021/03/30 10:08:47;;;;;;;6.37;4.70;;;;;;;;;;5035300;28;20527;-65
2021/03/30 10:11:25;;;;;;;5.90;4.40;;;;;;;;;;5033639;28;20471;-66
2021/03/30 10:13:52;;;;;;;4.80;4.20;;;;;;;;;;5035779;28;20432;-66
2021/03/30 10:16:19;;;;;;;3.77;2.90;;;;;;;;;;5032380;28;20464;-67
2021/03/30 10:18:45;;;;;;;6.20;4.10;;;;;;;;;;5033172;28;20484;-67
2021/03/30 10:21:14;;;;;;;5.67;5.17;;;;;;;;;;5030827;28;20490;-66
2021/03/30 10:23:42;;;;;;;6.27;5.67;;;;;;;;;;5032109;28;20507;-67
2021/03/30 10:26:12;;;;;;;6.33;5.07;;;;;;;;;;5030337;28;20551;-66
2021/03/30 10:28:40;;;;;;;6.73;5.47;;;;;;;;;;5032787;28;20480;-67
2021/03/30 10:31:12;;;;;;;7.97;5.30;;;;;;;;;;5033379;28;20424;-67
2021/03/30 10:33:40;;;;;;;6.47;5.87;;;;;;;;;;5026151;28;20464;-65
2021/03/30 10:36:09;;;;;;;5.80;5.20;;;;;;;;;;5032763;28;20576;-65
2021/03/30 10:38:35;;;;;;;5.07;4.57;;;;;;;;;;5032150;28;20467;-66
2021/03/30 10:41:04;;;;;;;5.03;4.53;;;;;;;;;;5033136;28;20555;-66
2021/03/30 10:43:31;;;;;;;5.73;4.40;;;;;;;;;;5030587;28;20857;-66
2021/03/30 10:45:59;;;;;;;7.63;5.63;;;;;;;;;;5033197;28;20499;-66
2021/03/30 10:48:26;;;;;;;5.80;5.23;;;;;;;;;;5032724;28;20464;-66
2021/03/30 10:50:53;;;;;;;5.60;5.10;;;;;;;;;;5031763;28;20483;-66
2021/03/30 10:53:20;;;;;;;5.87;5.27;;;;;;;;;;5033471;28;20455;-67
2021/03/30 10:55:47;;;;;;;5.17;4.70;;;;;;;;;;5031806;28;20551;-66
2021/03/30 10:58:15;;;;;;;5.13;4.70;;;;;;;;;;5033550;28;20526;-67
2021/03/30 11:00:43;;;;;;;4.63;4.30;;;;;;;;;;5030346;28;20488;-66
2021/03/30 11:03:10;;;;;;;4.20;3.80;;;;;;;;;;5033213;28;20491;-66
2021/03/30 11:05:37;;;;;;;4.53;4.23;;;;;;;;;;5031761;28;20582;-65
2021/03/30 11:08:04;;;;;;;4.83;3.87;;;;;;;;;;5033336;28;20472;-65
2021/03/30 11:10:33;;;;;;;3.87;3.20;;;;;;;;;;5032596;28;20565;-64
2021/03/30 11:13:00;;;;;;;3.33;2.20;;;;;;;;;;5032907;28;20471;-66
2021/03/30 11:15:26;;;;;;;3.40;3.10;;;;;;;;;;5030947;28;20464;-66
2021/03/30 11:17:54;;;;;;;4.47;3.40;;;;;;;;;;5045127;28;20527;-66
2021/03/30 11:20:23;;;;;;;5.33;3.03;;;;;;;;;;5033232;28;20567;-64
2021/03/30 11:22:50;;;;;;;4.73;3.90;;;;;;;;;;5033018;28;20538;-65
2021/03/30 11:25:17;;;;;;;3.90;2.50;;;;;;;;;;5031156;28;20475;-65
2021/03/30 11:27:47;;;;;;;3.90;3.50;;;;;;;;;;5031438;28;20468;-66
2021/03/30 11:30:17;;;;;;;2.33;2.00;;;;;;;;;;5071715;22;21020;-67
2021/03/30 11:32:57;;;;;;;4.73;3.90;;;;;;;;;;5072268;28;20447;-66
2021/03/30 11:35:33;;;;;;;4.90;4.40;;;;;;;;;;5071030;28;20459;-66
2021/03/30 11:38:06;;;;;;;5.60;5.10;;;;;;;;;;5064218;28;20462;-66
2021/03/30 11:40:33;;;;;;;5.40;4.90;;;;;;;;;;5071907;28;20470;-65
2021/03/30 11:42:59;;;;;;;6.13;5.07;;;;;;;;;;5057136;28;20484;-67
2021/03/30 11:45:26;;;;;;;5.53;4.73;;;;;;;;;;5052780;28;20451;-67
2021/03/30 11:47:52;;;;;;;6.93;5.23;;;;;;;;;;5051009;28;20467;-67
2021/03/30 11:50:19;;;;;;;5.37;4.70;;;;;;;;;;5052567;28;20483;-67
2021/03/30 11:52:47;;;;;;;5.33;4.83;;;;;;;;;;5051364;28;20459;-64
2021/03/30 11:55:14;;;;;;;6.37;5.77;;;;;;;;;;5052799;28;20474;-66
2021/03/30 11:57:43;;;;;;;7.53;6.20;;;;;;;;;;5051475;28;20974;-65
2021/03/30 12:00:10;;;;;;;5.57;5.07;;;;;;;;;;5050989;28;20541;-67
2021/03/30 12:02:37;;;;;;;6.07;5.43;;;;;;;;;;5032395;28;20485;-65
2021/03/30 12:05:04;;;;;;;7.90;5.27;;;;;;;;;;5044651;28;20536;-65
2021/03/30 12:07:31;;;;;;;5.40;4.87;;;;;;;;;;5050415;28;20658;-67
2021/03/30 12:09:58;;;;;;;5.80;4.70;;;;;;;;;;5050111;28;20490;-67
2021/03/30 12:12:25;;;;;;;5.53;5.03;;;;;;;;;;5052311;28;21084;-66
2021/03/30 12:14:52;;;;;;;5.70;5.03;;;;;;;;;;5051759;28;20550;-67
2021/03/30 12:17:19;;;;;;;6.00;5.40;;;;;;;;;;5050669;28;20487;-67
2021/03/30 12:19:45;;;;;;;5.70;4.57;;;;;;;;;;5051495;28;20487;-67
2021/03/30 12:22:12;;;;;;;6.70;4.90;;;;;;;;;;5052032;28;20865;-67
2021/03/30 12:24:39;;;;;;;5.53;5.03;;;;;;;;;;5051423;28;20554;-67
2021/03/30 12:27:09;;;;;;;5.77;5.20;;;;;;;;;;5050281;28;20468;-66
2021/03/30 12:29:36;;;;;;;6.27;4.97;;;;;;;;;;5052074;28;20483;-66
2021/03/30 12:32:02;;;;;;;6.50;5.80;;;;;;;;;;5051230;28;20920;-65
2021/03/30 12:34:29;;;;;;;5.63;4.97;;;;;;;;;;5052403;28;20440;-67
2021/03/30 12:36:56;;;;;;;5.40;4.90;;;;;;;;;;5050646;28;20466;-67
2021/03/30 12:39:22;;;;;;;5.63;5.03;;;;;;;;;;5051577;28;20526;-67
2021/03/30 12:41:49;;;;;;;6.57;5.40;;;;;;;;;;5051868;28;20539;-66
2021/03/30 12:44:18;;;;;;;6.10;5.50;;;;;;;;;;5060852;28;20478;-65
2021/03/30 12:46:45;;;;;;;5.77;5.27;;;;;;;;;;5071921;28;20485;-67
2021/03/30 12:49:11;;;;;;;4.80;4.37;;;;;;;;;;5061450;28;20471;-67
2021/03/30 12:51:38;;;;;;;4.53;4.10;;;;;;;;;;5050621;28;20883;-67
2021/03/30 12:54:05;;;;;;;5.13;3.60;;;;;;;;;;5050845;28;20806;-65
2021/03/30 12:56:31;;;;;;;3.67;3.30;;;;;;;;;;5050676;28;20499;-67
2021/03/30 12:58:58;;;;;;;3.90;3.40;;;;;;;;;;5051399;28;20535;-67
2021/03/30 13:01:26;;;;;;;3.70;3.20;;;;;;;;;;5050985;28;20491;-65
2021/03/30 13:03:52;;;;;;;4.77;3.80;;;;;;;;;;5051619;28;20583;-64
2021/03/30 13:06:19;;;;;;;5.27;3.80;;;;;;;;;;5050301;28;20982;-67
2021/03/30 13:08:45;;;;;;;4.83;4.17;;;;;;;;;;5052044;28;20506;-67
2021/03/30 13:11:12;;;;;;;3.53;3.20;;;;;;;;;;5051223;28;20570;-65
2021/03/30 13:13:39;;;;;;;4.63;3.60;;;;;;;;;;5051567;28;20838;-65
2021/03/30 13:16:06;;;;;;;5.00;3.00;;;;;;;;;;5050697;28;20471;-67
2021/03/30 13:18:33;;;;;;;3.70;2.50;;;;;;;;;;5050912;28;20880;-66
2021/03/30 13:21:00;;;;;;;3.87;2.30;;;;;;;;;;5054621;28;21077;-67
2021/03/30 13:23:27;;;;;;;3.17;2.53;;;;;;;;;;5055496;28;20518;-67
2021/03/30 13:25:54;;;;;;;5.43;2.70;;;;;;;;;;5053232;28;20561;-66
2021/03/30 13:28:20;;;;;;;6.20;2.60;;;;;;;;;;5055055;28;20472;-66
2021/03/30 13:30:47;;;;;;;2.87;2.33;;;;;;;;;;5054622;28;20569;-66
2021/03/30 13:33:14;;;;;;;3.50;2.23;;;;;;;;;;5055509;28;20558;-66
2021/03/30 13:35:41;;;;;;;4.20;2.50;;;;;;;;;;5054202;28;20806;-66
2021/03/30 13:38:08;;;;;;;3.00;2.70;;;;;;;;;;5055764;28;20451;-66
2021/03/30 13:40:35;;;;;;;3.90;3.00;;;;;;;;;;5053614;28;20491;-66
2021/03/30 13:43:02;;;;;;;6.60;2.73;;;;;;;;;;5055149;28;20578;-67
2021/03/30 13:45:29;;;;;;;3.67;2.40;;;;;;;;;;5054422;28;20460;-66
2021/03/30 13:47:55;;;;;;;3.27;2.50;;;;;;;;;;5055265;28;20534;-67
2021/03/30 13:50:22;;;;;;;4.30;2.47;;;;;;;;;;5053584;28;20483;-67
2021/03/30 13:52:50;;;;;;;5.20;2.87;;;;;;;;;;5054959;28;20514;-66
2021/03/30 13:55:17;;;;;;;4.03;2.30;;;;;;;;;;5054586;28;20452;-67
2021/03/30 13:57:45;;;;;;;5.00;2.93;;;;;;;;;;5052907;28;20464;-66
2021/03/30 14:00:12;;;;;;;5.37;3.13;;;;;;;;;;5054182;28;20479;-66
2021/03/30 14:02:39;;;;;;;3.40;3.10;;;;;;;;;;5054114;28;20515;-66
2021/03/30 14:05:06;;;;;;;3.50;3.20;;;;;;;;;;5055025;28;20447;-66
2021/03/30 14:07:33;;;;;;;4.80;3.10;;;;;;;;;;5053685;28;20463;-66
2021/03/30 14:10:00;;;;;;;4.90;3.70;;;;;;;;;;5054604;28;20521;-66
2021/03/30 14:12:31;;;;;;;3.10;2.77;;;;;;;;;;5053060;28;20902;-67
2021/03/30 14:15:01;;;;;;;3.17;2.53;;;;;;;;;;5035075;28;20478;-66
2021/03/30 14:17:31;;;;;;;3.63;2.77;;;;;;;;;;5038669;28;20505;-66
2021/03/30 14:19:59;;;;;;;4.83;3.10;;;;;;;;;;5053647;28;20492;-66
2021/03/30 14:22:32;;;;;;;3.53;2.73;;;;;;;;;;5054292;28;20478;-66
2021/03/30 14:25:14;;;;;;;3.60;3.23;;;;;;;;;;5052109;28;20543;-66
2021/03/30 14:27:41;;;;;;;3.87;3.47;;;;;;;;;;5054050;28;20463;-66
2021/03/30 14:30:08;;;;;;;4.63;3.40;;;;;;;;;;5052912;28;21018;-66
2021/03/30 14:32:35;;;;;;;5.70;3.13;;;;;;;;;;5053662;28;20531;-67
2021/03/30 14:35:02;;;;;;;4.77;3.17;;;;;;;;;;5053850;28;20534;-66
2021/03/30 14:37:31;;;;;;;6.70;3.70;;;;;;;;;;5054253;28;20443;-66
2021/03/30 14:40:02;;;;;;;4.93;3.50;;;;;;;;;;5052758;28;20490;-66
2021/03/30 14:42:30;;;;;;;5.53;3.40;;;;;;;;;;5053020;28;20499;-67